Etters, Pennsylvania
Current Conditions -  °F | °C
As of 6:56 AM on Monday 20 Oct 2014 (Local Time) from KMDT Reporting Station
Clear Clear  
Wind Chill: 34°   Ceiling: Unl
Heat Index: 38°   Visibility: 10mi
Dew Point: 34°   Wind: 5mph
Humidity: 86%   Direction: 70°ENE
Pressure: 30.09"   Gusts: NA
Location:  40.15°N, 76.79°W
Report Text: KMDT 201056Z 07004KT 10SM CLR 03/01 A3009 RMK AO2 SLP190 T00330011
Loading
Personal Weather Stations






























Interactive Weather Map New forecast layout! Learn more

10-Day Weather Forecast

Advertisements
Track Severe Weather on mobile